createdAt,value
2018-05-01T01:32:17.826Z,8.20
2018-05-01T01:38:50.261Z,8.10
2018-05-01T01:42:23.216Z,8.10
2018-05-01T01:45:25.147Z,8.10
2018-05-01T01:48:27.297Z,8.00
2018-05-01T01:51:28.489Z,8.10
2018-05-01T01:54:29.714Z,8.30
2018-05-01T01:57:38.770Z,8.20
2018-05-01T02:00:42.981Z,8.10
2018-05-01T02:03:44.944Z,8.10
2018-05-01T02:06:46.922Z,8.10
2018-05-01T02:09:48.112Z,8.00
2018-05-01T02:12:49.383Z,8.10
2018-05-01T02:15:50.555Z,8.20
2018-05-01T02:19:00.655Z,8.20
2018-05-01T02:22:01.778Z,8.50
2018-05-01T02:25:03.096Z,8.10
2018-05-01T02:28:09.095Z,8.20
2018-05-01T02:31:11.085Z,8.10
2018-05-01T02:34:13.160Z,8.20
2018-05-01T02:57:30.131Z,7.90
2018-05-01T03:00:33.015Z,7.90
2018-05-01T03:03:35.294Z,8.00
2018-05-01T03:06:36.778Z,8.00
2018-05-01T03:09:38.920Z,8.00
2018-05-01T03:12:41.112Z,8.00
2018-05-01T03:15:42.338Z,8.10
2018-05-01T03:18:43.626Z,8.00
2018-05-01T03:25:01.580Z,7.80
2018-05-01T03:28:05.781Z,7.80
2018-05-01T03:31:08.313Z,7.80
2018-05-01T03:34:09.681Z,7.90
2018-05-01T03:37:12.455Z,7.90
2018-05-01T03:40:19.613Z,8.00
2018-05-01T04:22:10.017Z,8.00
2018-05-01T04:25:12.827Z,7.90
2018-05-01T04:28:21.682Z,7.80
2018-05-01T04:31:27.487Z,7.70
2018-05-01T04:42:00.596Z,7.80
2018-05-01T04:45:08.885Z,7.80
2018-05-01T04:48:29.208Z,7.90
2018-05-01T05:08:32.936Z,8.00
2018-05-01T05:11:35.275Z,7.70
2018-05-01T05:14:38.101Z,7.70
2018-05-01T05:17:40.834Z,7.70
2018-05-01T05:20:45.861Z,7.80
2018-05-01T05:23:50.389Z,7.70
2018-05-01T05:30:07.291Z,7.90
2018-05-01T05:33:20.983Z,7.80
2018-05-01T05:36:29.519Z,7.80
2018-05-01T05:39:30.861Z,7.90
2018-05-01T05:42:32.041Z,7.50
2018-05-01T05:45:33.231Z,7.50
2018-05-01T05:48:35.444Z,7.70
2018-05-01T05:51:36.736Z,7.70
2018-05-01T05:54:38.059Z,7.80
2018-05-01T05:57:39.232Z,7.70
2018-05-01T06:00:42.251Z,7.90
2018-05-01T06:03:43.464Z,8.30
2018-05-01T06:06:44.713Z,7.70
2018-05-01T06:09:47.576Z,7.80
2018-05-01T06:12:49.745Z,7.60
2018-05-01T06:15:50.893Z,7.60
2018-05-01T06:18:52.084Z,7.70
2018-05-01T06:21:54.155Z,7.80
2018-05-01T06:24:55.329Z,7.70
2018-05-01T06:27:57.921Z,7.80
2018-05-01T06:30:59.913Z,7.80
2018-05-01T06:34:01.064Z,7.90
2018-05-01T06:37:02.291Z,7.70
2018-05-01T06:40:03.529Z,7.90
2018-05-01T06:43:08.275Z,7.90
2018-05-01T06:46:13.849Z,8.10
2018-05-01T06:49:15.123Z,8.00
2018-05-01T06:52:17.668Z,8.00
2018-05-01T06:55:19.629Z,7.90
2018-05-01T06:58:21.668Z,7.90
2018-05-01T07:01:22.925Z,7.90
2018-05-01T07:04:27.165Z,8.20
2018-05-01T07:07:28.558Z,8.10
2018-05-01T07:10:30.787Z,8.20
2018-05-01T07:13:35.993Z,7.80
2018-05-01T07:16:38.951Z,7.70
2018-05-01T07:19:40.745Z,7.80
2018-05-01T07:22:43.529Z,7.90
2018-05-01T07:25:47.565Z,8.20
2018-05-01T07:28:49.903Z,8.00
2018-05-01T07:31:51.697Z,8.10
2018-05-01T07:34:53.037Z,8.40
2018-05-01T07:37:55.301Z,8.40
2018-05-01T07:40:58.346Z,8.60
2018-05-01T07:44:08.740Z,8.60
2018-05-01T07:47:11.447Z,8.60
2018-05-01T07:50:16.120Z,8.70
2018-05-01T07:53:18.616Z,8.60
2018-05-01T07:56:20.015Z,8.70
2018-05-01T07:59:21.163Z,8.40
2018-05-01T08:02:22.398Z,8.70
2018-05-01T08:05:23.588Z,9.00
2018-05-01T08:08:24.753Z,9.10
2018-05-01T08:11:25.897Z,9.10
2018-05-01T08:14:27.062Z,8.80
2018-05-01T08:17:28.323Z,8.90
2018-05-01T08:20:29.500Z,8.90
2018-05-01T08:23:30.688Z,9.00
2018-05-01T08:26:32.584Z,8.90
2018-05-01T08:29:33.755Z,8.90
2018-05-01T08:32:34.955Z,8.70
2018-05-01T08:35:36.122Z,8.90
2018-05-01T08:38:37.285Z,9.00
2018-05-01T08:41:39.190Z,9.60
2018-05-01T08:44:41.093Z,10.10
2018-05-01T08:47:47.136Z,10.10
2018-05-01T08:50:49.091Z,9.80
2018-05-01T08:53:50.516Z,9.70
2018-05-01T08:56:51.749Z,9.70
2018-05-01T08:59:56.931Z,9.90
2018-05-01T09:02:58.392Z,9.90
2018-05-01T09:05:59.606Z,9.80
2018-05-01T09:09:00.847Z,9.80
2018-05-01T09:12:04.914Z,9.70
2018-05-01T09:15:08.254Z,9.90
2018-05-01T09:18:15.653Z,9.90
2018-05-01T09:21:16.764Z,10.10
2018-05-01T09:24:18.738Z,10.20
2018-05-01T09:27:19.902Z,10.10
2018-05-01T09:30:21.101Z,10.10
2018-05-01T09:33:23.039Z,11.20
2018-05-01T09:36:24.186Z,11.20
2018-05-01T09:39:25.294Z,11.50
2018-05-01T09:42:26.386Z,11.20
2018-05-01T09:45:27.499Z,11.60
2018-05-01T09:48:28.610Z,11.70
2018-05-01T09:51:29.841Z,12.40
2018-05-01T09:54:31.988Z,12.60
2018-05-01T09:57:34.214Z,12.20
2018-05-01T10:00:35.743Z,12.10
2018-05-01T10:03:37.273Z,11.80
2018-05-01T10:06:38.742Z,11.20
2018-05-01T10:09:40.228Z,11.00
2018-05-01T10:12:41.650Z,11.20
2018-05-01T10:15:43.911Z,11.10
2018-05-01T10:18:45.362Z,10.90
2018-05-01T10:21:46.779Z,10.90
2018-05-01T10:24:49.052Z,11.00
2018-05-01T10:27:50.583Z,10.90
2018-05-01T10:30:52.006Z,10.70
2018-05-01T10:33:54.170Z,11.00
2018-05-01T10:36:55.577Z,10.70
2018-05-01T10:39:56.980Z,11.10
2018-05-01T10:42:58.378Z,10.90
2018-05-01T10:46:00.595Z,11.10
2018-05-01T10:49:02.123Z,10.90
2018-05-01T10:52:03.552Z,10.80
2018-05-01T10:55:04.970Z,11.10
2018-05-01T10:58:06.363Z,10.80
2018-05-01T11:01:07.894Z,10.70
2018-05-01T11:04:09.339Z,11.00
2018-05-01T11:07:10.811Z,10.90
2018-05-01T11:10:12.390Z,10.70
2018-05-01T11:13:14.006Z,11.10
2018-05-01T11:16:15.439Z,11.10
2018-05-01T11:19:16.965Z,11.20
2018-05-01T11:22:18.418Z,11.30
2018-05-01T11:25:19.870Z,11.20
2018-05-01T11:28:22.090Z,11.30
2018-05-01T11:31:23.637Z,11.30
2018-05-01T11:34:25.098Z,11.40
2018-05-01T11:37:27.318Z,11.60
2018-05-01T11:40:28.787Z,11.80
2018-05-01T11:43:30.235Z,11.60
2018-05-01T11:46:31.746Z,11.60
2018-05-01T11:49:33.207Z,11.60
2018-05-01T11:52:34.729Z,11.50
2018-05-01T11:55:36.227Z,11.70
2018-05-01T11:58:37.756Z,12.00
2018-05-01T12:01:40.622Z,12.20
2018-05-01T12:04:42.130Z,12.20
2018-05-01T12:07:44.394Z,12.10
2018-05-01T12:10:46.700Z,12.30
2018-05-01T12:13:48.158Z,12.20
2018-05-01T12:16:50.423Z,12.60
2018-05-01T12:19:51.948Z,12.60
2018-05-01T12:22:53.568Z,12.70
2018-05-01T12:25:55.075Z,12.60
2018-05-01T12:28:56.727Z,13.00
2018-05-01T12:32:00.154Z,12.80
2018-05-01T12:35:01.840Z,12.40
2018-05-01T12:38:03.489Z,13.00
2018-05-01T12:41:05.011Z,13.00
2018-05-01T12:44:06.540Z,13.20
2018-05-01T12:47:08.838Z,13.50
2018-05-01T12:50:10.392Z,13.50
2018-05-01T12:53:12.751Z,13.80
2018-05-01T12:56:14.378Z,13.90
2018-05-01T12:59:16.196Z,14.40
2018-05-01T13:02:17.776Z,14.40
2018-05-01T13:05:19.259Z,14.20
2018-05-01T13:08:20.838Z,14.40
2018-05-01T13:11:23.233Z,14.00
2018-05-01T13:14:25.447Z,14.50
2018-05-01T13:17:27.061Z,14.20
2018-05-01T13:20:28.745Z,14.50
2018-05-01T13:23:31.119Z,14.70
2018-05-01T13:26:32.619Z,14.80
2018-05-01T13:29:34.921Z,15.20
2018-05-01T13:32:36.424Z,15.20
2018-05-01T13:35:37.919Z,15.20
2018-05-01T13:38:39.446Z,15.40
2018-05-01T13:41:41.919Z,15.70
2018-05-01T13:44:43.434Z,15.70
2018-05-01T13:47:44.957Z,16.10
2018-05-01T13:50:46.566Z,16.00
2018-05-01T13:53:48.108Z,16.40
2018-05-01T13:56:49.707Z,16.40
2018-05-01T13:59:51.253Z,16.30
2018-05-01T14:02:52.782Z,16.30
2018-05-01T14:05:54.485Z,16.70
2018-05-01T14:08:56.068Z,16.40
2018-05-01T14:11:57.587Z,16.60
2018-05-01T14:14:59.138Z,16.30
2018-05-01T14:18:00.953Z,16.10
2018-05-01T14:21:03.377Z,15.80
2018-05-01T14:24:05.007Z,15.70
2018-05-01T14:27:06.531Z,15.80
2018-05-01T14:30:08.444Z,15.60
2018-05-01T14:33:10.077Z,15.10
2018-05-01T14:36:11.572Z,14.70
2018-05-01T14:39:13.208Z,14.60
2018-05-01T14:42:15.825Z,14.50
2018-05-01T14:45:17.725Z,14.60
2018-05-01T14:48:19.209Z,14.90
2018-05-01T14:51:20.671Z,15.50
2018-05-01T14:54:22.180Z,15.20
2018-05-01T14:57:23.662Z,14.60
2018-05-01T15:00:25.205Z,14.20
2018-05-01T15:03:27.422Z,14.10
2018-05-01T15:06:29.548Z,13.70
2018-05-01T15:09:31.142Z,14.30
2018-05-01T15:12:33.373Z,14.20
2018-05-01T15:15:38.271Z,14.20
2018-05-01T15:18:44.575Z,14.50
2018-05-01T15:21:51.174Z,15.00
2018-05-01T15:24:57.708Z,14.80
2018-05-01T15:28:03.184Z,14.50
2018-05-01T15:31:08.373Z,14.50
2018-05-01T15:34:15.043Z,15.00
2018-05-01T15:37:17.134Z,14.90
2018-05-01T15:40:20.111Z,15.10
2018-05-01T15:43:21.815Z,14.90
2018-05-01T15:46:23.299Z,15.10
2018-05-01T15:49:24.784Z,15.10
2018-05-01T15:52:26.309Z,14.80
2018-05-01T15:55:28.552Z,14.70
2018-05-01T15:58:30.049Z,14.60
2018-05-01T16:01:31.615Z,14.60
2018-05-01T16:04:33.122Z,14.40
2018-05-01T16:07:34.592Z,14.40
2018-05-01T16:10:36.142Z,14.30
2018-05-01T16:13:37.651Z,14.10
2018-05-01T16:16:39.096Z,13.90
2018-05-01T16:19:40.559Z,13.90
2018-05-01T16:22:42.034Z,14.00
2018-05-01T16:25:43.501Z,14.00
2018-05-01T16:28:44.934Z,13.90
2018-05-01T16:31:47.116Z,13.80
2018-05-01T16:34:49.337Z,13.70
2018-05-01T16:37:50.764Z,13.70
2018-05-01T16:40:52.198Z,13.70
2018-05-01T16:43:53.621Z,13.90
2018-05-01T16:46:55.834Z,13.70
2018-05-01T16:49:57.273Z,13.70
2018-05-01T16:52:58.780Z,13.70
2018-05-01T16:56:00.259Z,13.70
2018-05-01T16:59:01.678Z,13.80
2018-05-01T17:05:12.100Z,13.70
2018-05-01T17:08:13.557Z,13.70
2018-05-01T17:11:15.037Z,13.60
2018-05-01T17:14:16.451Z,13.60
2018-05-01T17:17:17.853Z,13.50
2018-05-01T17:20:20.019Z,13.40
2018-05-01T17:23:21.419Z,13.60
2018-05-01T17:26:22.839Z,13.30
2018-05-01T17:29:24.342Z,13.20
2018-05-01T17:32:26.566Z,13.20
2018-05-01T17:35:28.046Z,13.10
2018-05-01T17:38:29.482Z,13.10
2018-05-01T17:41:30.920Z,13.30
2018-05-01T17:44:33.134Z,13.20
2018-05-01T17:47:34.568Z,13.30
2018-05-01T17:50:36.017Z,13.00
2018-05-01T17:53:37.518Z,13.10
2018-05-01T17:56:39.760Z,13.20
2018-05-01T17:59:41.164Z,13.10
2018-05-01T18:02:42.656Z,13.20
2018-05-01T18:05:44.120Z,12.90
2018-05-01T18:08:46.358Z,13.00
2018-05-01T18:11:47.810Z,13.00
2018-05-01T18:14:49.217Z,12.90
2018-05-01T18:17:50.745Z,12.80
2018-05-01T18:20:52.174Z,12.90
2018-05-01T18:23:54.347Z,12.70
2018-05-01T18:26:56.536Z,12.60
2018-05-01T18:29:58.762Z,12.60
2018-05-01T18:33:00.974Z,12.60
2018-05-01T18:36:02.430Z,12.60
2018-05-01T18:39:04.745Z,12.50
2018-05-01T18:45:14.466Z,12.50
2018-05-01T18:48:16.643Z,12.40
2018-05-01T18:51:18.150Z,12.30
2018-05-01T18:54:19.535Z,12.10
2018-05-01T18:57:21.039Z,16.00
2018-05-01T19:00:27.128Z,16.90
2018-05-01T19:03:29.181Z,16.80
2018-05-01T19:06:31.469Z,13.80
2018-05-01T19:09:32.935Z,13.80
2018-05-01T19:12:34.893Z,13.20
2018-05-01T19:15:37.434Z,12.50
2018-05-01T19:18:39.669Z,12.40
2018-05-01T19:21:41.634Z,12.40
2018-05-01T19:24:43.453Z,12.20
2018-05-01T19:27:44.952Z,11.90
2018-05-01T19:33:55.631Z,12.00
2018-05-01T19:36:57.501Z,11.50
2018-05-01T19:39:59.545Z,11.50
2018-05-01T19:43:01.750Z,11.70
2018-05-01T19:46:03.523Z,11.60
2018-05-01T19:49:05.138Z,11.40
2018-05-01T19:52:06.623Z,11.70
2018-05-01T19:55:08.881Z,11.60
2018-05-01T19:58:10.517Z,11.50
2018-05-01T20:01:11.964Z,11.60
2018-05-01T20:04:14.612Z,11.40
2018-05-01T20:07:16.075Z,11.40
2018-05-01T20:10:17.756Z,11.10
2018-05-01T20:13:19.188Z,11.10
2018-05-01T20:16:20.846Z,11.20
2018-05-01T20:19:22.329Z,11.20
2018-05-01T20:22:23.827Z,11.30
2018-05-01T20:25:25.353Z,11.20
2018-05-01T20:28:26.777Z,11.00
2018-05-01T20:31:33.072Z,11.70
2018-05-01T20:34:46.121Z,11.50
2018-05-01T20:37:55.236Z,11.40
2018-05-01T20:44:16.614Z,11.30
2018-05-01T20:47:20.825Z,11.20
2018-05-01T20:50:24.393Z,11.00
2018-05-01T20:53:25.923Z,10.70
2018-05-01T20:56:27.377Z,10.80
2018-05-01T20:59:29.005Z,10.40
2018-05-01T21:02:31.249Z,10.70
2018-05-01T21:05:32.828Z,10.70
2018-05-01T21:08:34.343Z,10.60
2018-05-01T21:11:35.787Z,10.80
2018-05-01T21:14:39.077Z,10.80
2018-05-01T21:17:41.991Z,10.80
2018-05-01T21:20:43.546Z,10.70
2018-05-01T21:23:44.990Z,10.80
2018-05-01T21:26:46.914Z,11.00
2018-05-01T21:29:49.366Z,10.60
2018-05-01T21:32:50.785Z,10.60
2018-05-01T21:35:53.008Z,10.70
2018-05-01T21:38:54.789Z,10.50
2018-05-01T21:41:56.369Z,10.20
2018-05-01T21:44:58.602Z,10.30
2018-05-01T21:48:00.141Z,10.50
2018-05-01T21:51:01.576Z,10.50
2018-05-01T21:54:03.547Z,10.10
2018-05-01T21:57:06.530Z,10.20
2018-05-01T22:00:07.991Z,10.30
2018-05-01T22:03:10.144Z,10.40
2018-05-01T22:06:11.600Z,10.40
2018-05-01T22:09:13.061Z,10.20
2018-05-01T22:12:14.454Z,10.40
2018-05-01T22:15:15.869Z,10.40
2018-05-01T22:18:17.326Z,10.40
2018-05-01T22:21:18.823Z,10.30
2018-05-01T22:24:21.027Z,10.30
2018-05-01T22:27:22.467Z,10.30
2018-05-01T22:30:23.940Z,10.20
2018-05-01T22:33:25.493Z,10.20
2018-05-01T22:36:26.935Z,10.30
2018-05-01T22:39:28.383Z,10.20
2018-05-01T22:42:29.861Z,10.20
2018-05-01T22:45:31.326Z,10.10
2018-05-01T22:48:33.332Z,10.30
2018-05-01T22:51:35.544Z,10.10
2018-05-01T22:54:37.005Z,10.10
2018-05-01T22:57:38.403Z,10.30
2018-05-01T23:00:39.941Z,10.20
2018-05-01T23:03:41.364Z,10.40
2018-05-01T23:06:42.793Z,9.90
2018-05-01T23:09:44.365Z,10.20
2018-05-01T23:12:45.753Z,10.20
2018-05-01T23:15:47.155Z,10.10
2018-05-01T23:18:49.338Z,10.10
2018-05-01T23:21:50.765Z,10.10
2018-05-01T23:24:52.169Z,10.00
2018-05-01T23:27:54.282Z,10.10
2018-05-01T23:30:55.667Z,10.10
2018-05-01T23:33:57.192Z,10.00
2018-05-01T23:36:58.606Z,10.10
2018-05-01T23:40:00.026Z,9.90
2018-05-01T23:43:02.193Z,9.90
2018-05-01T23:46:03.590Z,9.90
2018-05-01T23:49:05.065Z,9.90
2018-05-01T23:55:14.502Z,10.00
2018-05-01T23:58:16.038Z,9.90
